createdAt,value
2018-04-08T00:00:55.867Z,99.40
2018-04-08T00:01:58.384Z,99.40
2018-04-08T00:03:00.897Z,99.40
2018-04-08T00:04:04.152Z,99.90
2018-04-08T00:05:07.419Z,99.70
2018-04-08T00:06:09.960Z,99.70
2018-04-08T00:07:12.468Z,99.90
2018-04-08T00:08:14.981Z,99.90
2018-04-08T00:09:18.252Z,99.90
2018-04-08T00:10:20.754Z,99.90
2018-04-08T00:11:23.269Z,99.90
2018-04-08T00:12:25.773Z,99.20
2018-04-08T00:13:29.098Z,98.40
2018-04-08T00:14:31.579Z,98.40
2018-04-08T00:15:34.070Z,98.30
2018-04-08T00:16:36.572Z,98.10
2018-04-08T00:17:39.840Z,98.10
2018-04-08T00:18:42.362Z,98.00
2018-04-08T00:19:44.874Z,97.80
2018-04-08T00:20:47.376Z,97.70
2018-04-08T00:21:50.686Z,98.10
2018-04-08T00:22:53.207Z,98.10
2018-04-08T00:23:55.755Z,97.70
2018-04-08T00:24:58.251Z,97.50
2018-04-08T00:26:00.772Z,97.40
2018-04-08T00:27:03.271Z,97.20
2018-04-08T00:28:05.777Z,97.30
2018-04-08T00:29:08.287Z,97.80
2018-04-08T00:30:10.820Z,97.90
2018-04-08T00:31:13.324Z,97.70
2018-04-08T00:32:15.830Z,97.70
2018-04-08T00:33:18.350Z,97.80
2018-04-08T00:34:21.623Z,98.10
2018-04-08T00:35:24.871Z,98.60
2018-04-08T00:36:27.375Z,98.50
2018-04-08T00:37:29.887Z,98.90
2018-04-08T00:38:32.384Z,99.30
2018-04-08T00:39:34.892Z,98.90
2018-04-08T00:40:38.149Z,99.10
2018-04-08T00:41:40.646Z,99.10
2018-04-08T00:42:43.911Z,99.20
2018-04-08T00:43:46.423Z,99.10
2018-04-08T00:44:49.711Z,99.70
2018-04-08T00:45:52.977Z,99.90
2018-04-08T00:46:55.471Z,99.90
2018-04-08T00:47:57.956Z,99.90
2018-04-08T00:49:00.455Z,99.90
2018-04-08T00:50:02.964Z,99.90
2018-04-08T00:51:06.230Z,99.90
2018-04-08T00:52:08.738Z,99.90
2018-04-08T00:53:11.320Z,99.90
2018-04-08T00:54:26.084Z,99.90
2018-04-08T00:55:28.596Z,99.90
2018-04-08T00:56:31.093Z,99.90
2018-04-08T00:57:34.355Z,99.90
2018-04-08T00:58:36.876Z,99.90
2018-04-08T00:59:39.395Z,99.90
2018-04-08T01:00:41.899Z,99.90
2018-04-08T01:01:45.161Z,99.90
2018-04-08T01:02:47.659Z,99.90
2018-04-08T01:03:50.945Z,99.90
2018-04-08T01:04:54.213Z,99.90
2018-04-08T01:05:56.709Z,99.90
2018-04-08T01:06:59.991Z,99.90
2018-04-08T01:08:03.247Z,99.90
2018-04-08T01:09:06.585Z,99.90
2018-04-08T01:10:09.125Z,99.90
2018-04-08T01:11:11.743Z,99.90
2018-04-08T01:12:14.242Z,99.90
2018-04-08T01:13:16.760Z,99.90
2018-04-08T01:14:20.030Z,99.90
2018-04-08T01:15:22.551Z,99.90
2018-04-08T01:16:25.047Z,99.90
2018-04-08T01:17:27.554Z,99.90
2018-04-08T01:18:30.839Z,99.90
2018-04-08T01:19:34.123Z,99.90
2018-04-08T01:20:37.430Z,99.90
2018-04-08T01:21:39.948Z,99.90
2018-04-08T01:22:42.463Z,99.90
2018-04-08T01:23:45.727Z,99.90
2018-04-08T01:24:48.217Z,99.90
2018-04-08T01:25:51.482Z,99.90
2018-04-08T01:26:53.990Z,99.90
2018-04-08T01:27:56.503Z,99.90
2018-04-08T01:28:59.010Z,99.90
2018-04-08T01:30:02.275Z,99.90
2018-04-08T01:31:06.297Z,99.90
2018-04-08T01:32:08.796Z,99.90
2018-04-08T01:33:11.322Z,99.90
2018-04-08T01:34:13.830Z,99.90
2018-04-08T01:35:17.099Z,99.90
2018-04-08T01:36:20.361Z,99.90
2018-04-08T01:37:22.866Z,99.90
2018-04-08T01:38:26.136Z,99.90
2018-04-08T01:39:28.636Z,99.90
2018-04-08T01:40:31.137Z,99.90
2018-04-08T01:41:33.659Z,99.90
2018-04-08T01:42:36.156Z,99.90
2018-04-08T01:43:38.658Z,99.90
2018-04-08T01:44:41.146Z,99.90
2018-04-08T01:45:43.634Z,99.90
2018-04-08T01:46:46.143Z,99.90
2018-04-08T01:47:48.662Z,99.90
2018-04-08T01:48:51.155Z,99.90
2018-04-08T01:49:54.462Z,99.90
2018-04-08T01:50:56.981Z,99.90
2018-04-08T01:51:59.485Z,99.90
2018-04-08T01:53:02.735Z,99.90
2018-04-08T01:54:05.237Z,99.90
2018-04-08T01:55:08.490Z,99.90
2018-04-08T01:56:10.985Z,99.90
2018-04-08T01:57:13.482Z,99.90
2018-04-08T01:58:15.983Z,99.90
2018-04-08T01:59:18.489Z,99.90
2018-04-08T02:00:20.976Z,99.90
2018-04-08T02:01:24.252Z,99.90
2018-04-08T02:02:26.767Z,99.90
2018-04-08T02:03:29.265Z,99.90
2018-04-08T02:04:31.778Z,99.90
2018-04-08T02:05:35.088Z,99.90
2018-04-08T02:06:37.586Z,99.90
2018-04-08T02:07:40.137Z,99.90
2018-04-08T02:08:42.655Z,99.90
2018-04-08T02:09:45.169Z,99.90
2018-04-08T02:10:47.670Z,99.90
2018-04-08T02:11:50.168Z,99.90
2018-04-08T02:12:52.669Z,99.90
2018-04-08T02:13:55.987Z,99.90
2018-04-08T02:14:58.487Z,99.90
2018-04-08T02:16:00.988Z,99.90
2018-04-08T02:17:04.297Z,99.90
2018-04-08T02:18:06.803Z,99.90
2018-04-08T02:19:09.303Z,99.90
2018-04-08T02:20:12.585Z,99.90
2018-04-08T02:21:15.098Z,99.90
2018-04-08T02:22:17.588Z,99.90
2018-04-08T02:23:20.096Z,99.90
2018-04-08T02:24:22.590Z,99.80
2018-04-08T02:25:25.848Z,99.90
2018-04-08T02:26:28.362Z,99.90
2018-04-08T02:27:30.862Z,99.90
2018-04-08T02:28:33.370Z,99.90
2018-04-08T02:29:35.981Z,99.90
2018-04-08T02:30:38.499Z,99.90
2018-04-08T02:31:41.024Z,99.80
2018-04-08T02:32:43.513Z,99.90
2018-04-08T02:33:46.007Z,99.90
2018-04-08T02:34:48.497Z,99.80
2018-04-08T02:35:51.012Z,99.90
2018-04-08T02:36:53.505Z,99.90
2018-04-08T02:37:55.990Z,99.90
2018-04-08T02:38:58.485Z,99.90
2018-04-08T02:40:01.762Z,99.90
2018-04-08T02:41:04.269Z,99.90
2018-04-08T02:42:06.769Z,99.90
2018-04-08T02:43:09.259Z,99.90
2018-04-08T02:44:11.751Z,99.90
2018-04-08T02:45:15.026Z,99.90
2018-04-08T02:46:18.311Z,99.90
2018-04-08T02:47:21.575Z,99.90
2018-04-08T02:48:24.081Z,99.90
2018-04-08T02:49:26.582Z,99.90
2018-04-08T02:50:29.076Z,99.90
2018-04-08T02:51:31.593Z,99.90
2018-04-08T02:52:34.089Z,99.90
2018-04-08T02:53:36.595Z,99.90
2018-04-08T02:54:39.097Z,99.90
2018-04-08T02:55:41.610Z,99.90
2018-04-08T02:56:44.120Z,99.90
2018-04-08T02:57:46.620Z,99.90
2018-04-08T02:58:49.991Z,99.90
2018-04-08T02:59:53.251Z,99.90
2018-04-08T03:00:55.775Z,99.90
2018-04-08T03:01:59.050Z,99.90
2018-04-08T03:03:01.657Z,99.90
2018-04-08T03:04:04.171Z,99.90
2018-04-08T03:05:06.664Z,99.90
2018-04-08T03:06:09.186Z,99.90
2018-04-08T03:07:11.706Z,99.90
2018-04-08T03:08:14.201Z,99.90
2018-04-08T03:09:17.471Z,99.90
2018-04-08T03:10:19.958Z,99.90
2018-04-08T03:11:22.462Z,99.90
2018-04-08T03:12:24.970Z,99.90
2018-04-08T03:13:27.465Z,99.90
2018-04-08T03:14:30.733Z,99.90
2018-04-08T03:15:33.228Z,99.90
2018-04-08T03:16:35.720Z,99.90
2018-04-08T03:17:38.230Z,99.90
2018-04-08T03:18:40.726Z,99.90
2018-04-08T03:19:43.986Z,99.90
2018-04-08T03:20:46.478Z,99.90
2018-04-08T03:21:49.752Z,99.90
2018-04-08T03:22:52.255Z,99.90
2018-04-08T03:23:55.513Z,99.90
2018-04-08T03:24:58.017Z,99.90
2018-04-08T03:26:00.537Z,99.90
2018-04-08T03:27:03.019Z,99.90
2018-04-08T03:28:07.026Z,99.90
2018-04-08T03:29:09.525Z,99.90
2018-04-08T03:30:12.828Z,99.90
2018-04-08T03:31:15.327Z,99.90
2018-04-08T03:32:17.841Z,99.90
2018-04-08T03:33:21.113Z,99.90
2018-04-08T03:34:23.599Z,99.90
2018-04-08T03:35:26.094Z,99.90
2018-04-08T03:36:28.609Z,99.90
2018-04-08T03:37:31.102Z,99.90
2018-04-08T03:38:34.380Z,99.90
2018-04-08T03:39:36.872Z,99.90
2018-04-08T03:40:40.138Z,99.90
2018-04-08T03:41:42.639Z,99.90
2018-04-08T03:42:45.894Z,99.90
2018-04-08T03:43:48.520Z,99.90
2018-04-08T03:44:51.026Z,99.90
2018-04-08T03:45:53.518Z,99.90
2018-04-08T03:46:56.019Z,99.90
2018-04-08T03:47:58.525Z,99.90
2018-04-08T03:49:01.025Z,99.90
2018-04-08T03:50:03.538Z,99.90
2018-04-08T03:51:06.042Z,99.90
2018-04-08T03:52:08.536Z,99.90
2018-04-08T03:53:11.046Z,99.90
2018-04-08T03:54:13.560Z,99.90
2018-04-08T03:55:16.051Z,99.90
2018-04-08T03:56:18.535Z,99.90
2018-04-08T03:57:21.839Z,99.90
2018-04-08T03:58:24.347Z,99.90
2018-04-08T03:59:26.844Z,99.90
2018-04-08T04:00:29.340Z,99.90
2018-04-08T04:01:32.598Z,99.80
2018-04-08T04:02:35.870Z,99.50
2018-04-08T04:03:38.375Z,99.60
2018-04-08T04:04:41.661Z,99.10
2018-04-08T04:05:44.927Z,99.00
2018-04-08T04:06:47.434Z,99.00
2018-04-08T04:07:50.704Z,99.00
2018-04-08T04:08:53.202Z,99.00
2018-04-08T04:09:55.698Z,98.90
2018-04-08T04:10:58.198Z,98.80
2018-04-08T04:12:00.704Z,98.90
2018-04-08T04:13:03.957Z,99.20
2018-04-08T04:14:07.215Z,99.30
2018-04-08T04:15:09.861Z,99.30
2018-04-08T04:16:12.470Z,99.40
2018-04-08T04:17:14.978Z,99.40
2018-04-08T04:20:04.594Z,99.20
2018-04-08T04:21:19.087Z,99.20
2018-04-08T04:22:33.497Z,99.40
2018-04-08T04:23:47.996Z,99.30
2018-04-08T04:25:02.602Z,99.30
2018-04-08T04:26:17.019Z,99.30
2018-04-08T04:27:19.521Z,99.20
2018-04-08T04:28:22.014Z,99.20
2018-04-08T04:29:24.502Z,99.40
2018-04-08T04:30:27.019Z,99.50
2018-04-08T04:31:30.290Z,99.50
2018-04-08T04:32:32.790Z,99.50
2018-04-08T04:33:35.295Z,99.40
2018-04-08T04:34:37.823Z,99.40
2018-04-08T04:35:41.103Z,99.40
2018-04-08T04:36:44.371Z,99.40
2018-04-08T04:37:46.902Z,99.40
2018-04-08T04:38:49.386Z,99.40
2018-04-08T04:39:51.900Z,99.10
2018-04-08T04:40:55.149Z,99.00
2018-04-08T04:41:57.643Z,99.00
2018-04-08T04:43:00.140Z,99.00
2018-04-08T04:44:02.643Z,98.80
2018-04-08T04:45:05.158Z,98.90
2018-04-08T04:46:07.661Z,98.80
2018-04-08T04:47:10.361Z,98.70
2018-04-08T04:48:12.917Z,98.60
2018-04-08T04:49:15.416Z,98.50
2018-04-08T04:50:17.921Z,98.60
2018-04-08T04:51:21.192Z,98.40
2018-04-08T04:52:23.682Z,98.40
2018-04-08T04:53:26.933Z,98.10
2018-04-08T04:54:29.427Z,98.10
2018-04-08T04:55:31.929Z,97.90
2018-04-08T04:56:34.427Z,98.10
2018-04-08T04:57:36.945Z,98.30
2018-04-08T04:58:40.204Z,98.30
2018-04-08T04:59:42.707Z,98.20
2018-04-08T05:00:46.019Z,97.90
2018-04-08T05:01:48.530Z,97.80
2018-04-08T05:02:51.032Z,97.90
2018-04-08T05:03:53.513Z,97.70
2018-04-08T05:04:56.775Z,97.20
2018-04-08T05:05:59.444Z,97.20
2018-04-08T05:07:01.964Z,97.20
2018-04-08T05:08:04.472Z,97.00
2018-04-08T05:09:06.968Z,97.00
2018-04-08T05:10:09.606Z,96.80
2018-04-08T05:11:12.351Z,96.60
2018-04-08T05:12:14.851Z,96.30
2018-04-08T05:13:17.346Z,96.20
2018-04-08T05:14:19.862Z,96.10
2018-04-08T05:15:22.351Z,95.70
2018-04-08T05:16:24.870Z,95.50
2018-04-08T05:17:28.146Z,95.10
2018-04-08T05:18:30.648Z,95.00
2018-04-08T05:19:33.152Z,94.90
2018-04-08T05:20:35.677Z,94.90
2018-04-08T05:21:38.952Z,94.10
2018-04-08T05:22:41.487Z,94.10
2018-04-08T05:23:44.001Z,93.90
2018-04-08T05:24:46.490Z,93.60
2018-04-08T05:25:49.786Z,93.00
2018-04-08T05:26:52.278Z,92.90
2018-04-08T05:27:54.796Z,92.70
2018-04-08T05:28:57.286Z,92.50
2018-04-08T05:29:59.830Z,92.20
2018-04-08T05:31:02.319Z,91.80
2018-04-08T05:32:05.607Z,91.30
2018-04-08T05:33:08.869Z,91.10
2018-04-08T05:34:11.378Z,91.00
2018-04-08T05:35:13.950Z,90.50
2018-04-08T05:36:16.443Z,90.40
2018-04-08T05:37:18.949Z,90.20
2018-04-08T05:38:21.458Z,89.90
2018-04-08T05:39:24.720Z,88.50
2018-04-08T05:40:27.214Z,88.40
2018-04-08T05:41:30.472Z,87.80
2018-04-08T05:42:32.968Z,87.80
2018-04-08T05:43:36.239Z,85.50
2018-04-08T05:44:38.731Z,85.30
2018-04-08T05:45:41.240Z,83.80
2018-04-08T05:46:43.756Z,82.40
2018-04-08T05:47:47.013Z,81.10
2018-04-08T05:48:49.530Z,81.10
2018-04-08T05:49:52.074Z,80.20
2018-04-08T05:50:54.570Z,78.40
2018-04-08T05:51:57.063Z,77.70
2018-04-08T05:52:59.555Z,77.20
2018-04-08T05:54:02.073Z,76.20
2018-04-08T05:55:05.346Z,74.40
2018-04-08T05:56:07.849Z,74.20
2018-04-08T05:57:10.536Z,73.50
2018-04-08T05:58:13.108Z,73.60
2018-04-08T05:59:15.631Z,73.00
2018-04-08T06:00:18.138Z,72.70
2018-04-08T06:01:20.653Z,72.30
2018-04-08T06:02:23.154Z,73.00
2018-04-08T06:03:26.425Z,73.30
2018-04-08T06:04:28.931Z,73.30
2018-04-08T06:05:31.426Z,73.50
2018-04-08T06:06:33.915Z,73.90
2018-04-08T06:07:36.408Z,75.10
2018-04-08T06:08:38.907Z,76.20
2018-04-08T06:09:42.198Z,76.80
2018-04-08T06:10:44.742Z,76.80
2018-04-08T06:11:48.005Z,76.90
2018-04-08T06:12:50.494Z,76.80
2018-04-08T06:13:52.990Z,78.10
2018-04-08T06:14:56.251Z,77.80
2018-04-08T06:15:58.744Z,77.80
2018-04-08T06:17:02.033Z,78.10
2018-04-08T06:18:05.312Z,77.80
2018-04-08T06:19:08.580Z,77.60
2018-04-08T06:20:11.212Z,77.60
2018-04-08T06:21:13.749Z,78.00
2018-04-08T06:22:16.285Z,78.00
2018-04-08T06:23:18.780Z,78.10
2018-04-08T06:24:22.040Z,77.30
2018-04-08T06:25:24.546Z,77.20
2018-04-08T06:26:27.863Z,77.20
2018-04-08T06:27:30.408Z,77.20
2018-04-08T06:28:33.672Z,77.40
2018-04-08T06:29:36.165Z,77.30
2018-04-08T06:30:39.442Z,77.70
2018-04-08T06:41:26.976Z,77.70
2018-04-08T06:42:29.470Z,77.40
2018-04-08T06:43:32.023Z,77.50
2018-04-08T06:44:34.507Z,77.30
2018-04-08T06:45:37.018Z,77.20
2018-04-08T06:46:39.549Z,77.40
2018-04-08T06:47:42.063Z,76.90
2018-04-08T06:48:44.585Z,76.60
2018-04-08T06:49:47.095Z,76.40
2018-04-08T06:50:49.599Z,76.40
2018-04-08T06:51:52.113Z,76.80
2018-04-08T06:52:54.615Z,77.10
2018-04-08T06:53:57.101Z,76.20
2018-04-08T06:54:59.604Z,76.20
2018-04-08T06:56:02.944Z,75.60
2018-04-08T06:57:05.442Z,75.60
2018-04-08T06:58:07.923Z,74.90
2018-04-08T06:59:11.262Z,73.20
2018-04-08T07:00:13.863Z,73.10
2018-04-08T07:01:16.660Z,73.10
2018-04-08T07:02:19.994Z,71.20
2018-04-08T07:03:22.506Z,71.20
2018-04-08T07:04:24.999Z,70.60
2018-04-08T07:05:28.257Z,70.00
2018-04-08T07:06:30.779Z,70.00
2018-04-08T07:07:33.286Z,70.00
2018-04-08T07:08:35.802Z,69.10
2018-04-08T07:09:39.078Z,68.10
2018-04-08T07:10:42.346Z,67.20
2018-04-08T07:11:44.845Z,67.20
2018-04-08T07:12:48.135Z,64.60
2018-04-08T07:13:51.413Z,64.20
2018-04-08T07:14:54.673Z,62.90
2018-04-08T07:15:57.171Z,62.80
2018-04-08T07:17:00.431Z,59.60
2018-04-08T07:18:02.948Z,59.60
2018-04-08T07:19:05.468Z,59.00
2018-04-08T07:20:07.970Z,58.00
2018-04-08T07:21:11.322Z,57.60
2018-04-08T07:22:13.881Z,57.60
2018-04-08T07:23:16.397Z,57.20
2018-04-08T07:24:19.709Z,57.30
2018-04-08T07:25:22.223Z,57.20
2018-04-08T07:26:24.724Z,57.00
2018-04-08T07:27:28.014Z,56.70
2018-04-08T07:28:31.306Z,57.10
2018-04-08T07:29:33.873Z,56.40
2018-04-08T07:30:37.148Z,56.00
2018-04-08T07:31:39.837Z,56.00
2018-04-08T07:32:43.233Z,55.50
2018-04-08T07:33:45.704Z,55.30
2018-04-08T07:34:48.981Z,54.90
2018-04-08T07:35:51.495Z,54.80
2018-04-08T07:36:53.999Z,55.40
2018-04-08T07:37:56.542Z,54.30
2018-04-08T07:38:59.070Z,54.40
2018-04-08T07:40:01.609Z,53.70
2018-04-08T07:41:04.125Z,54.00
2018-04-08T07:42:06.670Z,53.50
2018-04-08T07:43:09.187Z,53.30
2018-04-08T07:44:11.805Z,52.60
2018-04-08T07:45:14.280Z,52.20
2018-04-08T07:46:17.823Z,52.30
2018-04-08T07:47:20.463Z,52.10
2018-04-08T07:48:23.745Z,52.00
2018-04-08T07:49:27.018Z,51.90
2018-04-08T07:50:30.289Z,51.50
2018-04-08T07:51:32.820Z,51.60
2018-04-08T07:52:35.317Z,52.10
2018-04-08T07:53:37.838Z,51.70
2018-04-08T07:54:41.197Z,51.70
2018-04-08T07:55:43.696Z,51.60
2018-04-08T07:56:46.986Z,52.00
2018-04-08T07:57:50.256Z,52.60
2018-04-08T07:58:52.771Z,52.50
2018-04-08T07:59:55.273Z,52.90
2018-04-08T08:00:57.817Z,52.90
2018-04-08T08:02:00.318Z,53.10
2018-04-08T08:03:02.845Z,53.30
2018-04-08T08:04:05.375Z,53.40
2018-04-08T08:05:07.914Z,53.50
2018-04-08T08:06:10.650Z,53.80
2018-04-08T08:07:13.940Z,53.40
2018-04-08T08:08:17.208Z,53.60
2018-04-08T08:09:21.235Z,53.20
2018-04-08T08:10:24.537Z,52.90
2018-04-08T08:11:27.030Z,52.90
2018-04-08T08:12:29.533Z,52.00
2018-04-08T08:13:32.055Z,51.10
2018-04-08T08:14:34.591Z,50.80
2018-04-08T08:15:37.116Z,49.60
2018-04-08T08:16:39.631Z,48.70
2018-04-08T08:17:42.145Z,48.00
2018-04-08T08:18:44.664Z,47.10
2018-04-08T08:19:47.187Z,45.90
2018-04-08T08:20:49.730Z,44.60
2018-04-08T08:21:53.008Z,43.80
2018-04-08T08:22:55.511Z,43.10
2018-04-08T08:23:58.005Z,43.20
2018-04-08T08:25:00.518Z,42.30
2018-04-08T08:26:03.021Z,42.40
2018-04-08T08:27:05.529Z,42.40
2018-04-08T08:28:08.035Z,41.80
2018-04-08T08:29:10.744Z,40.20
2018-04-08T08:30:13.339Z,40.00
2018-04-08T08:31:15.852Z,40.40
2018-04-08T08:32:18.363Z,38.80
2018-04-08T08:33:20.864Z,38.10
2018-04-08T08:34:23.366Z,38.80
2018-04-08T08:35:26.628Z,40.20
2018-04-08T08:36:29.178Z,39.40
2018-04-08T08:37:31.687Z,39.40
2018-04-08T08:38:34.197Z,39.20
2018-04-08T08:39:36.724Z,38.30
2018-04-08T08:40:39.234Z,38.10
2018-04-08T08:41:41.762Z,38.00
2018-04-08T08:42:44.281Z,37.80
2018-04-08T08:43:46.790Z,38.10
2018-04-08T08:44:49.300Z,38.60
2018-04-08T08:45:52.563Z,39.10
2018-04-08T08:46:55.086Z,38.40
2018-04-08T08:47:57.585Z,37.80
2018-04-08T08:49:00.087Z,37.60
2018-04-08T08:50:03.355Z,39.40
2018-04-08T08:51:05.865Z,39.20
2018-04-08T08:52:08.392Z,38.80
2018-04-08T08:53:11.077Z,39.20
2018-04-08T08:54:13.843Z,39.90
2018-04-08T08:55:16.360Z,39.70
2018-04-08T08:56:18.869Z,39.90
2018-04-08T08:57:22.168Z,38.40
2018-04-08T08:58:24.656Z,38.40
2018-04-08T08:59:27.176Z,38.80
2018-04-08T09:00:29.682Z,38.70
2018-04-08T09:01:32.971Z,37.60
2018-04-08T09:02:36.271Z,37.40
2018-04-08T09:03:39.732Z,37.60
2018-04-08T09:04:42.271Z,37.50
2018-04-08T09:05:44.815Z,37.20
2018-04-08T09:06:47.310Z,37.10
2018-04-08T09:07:50.599Z,36.90
2018-04-08T09:08:53.895Z,36.40
2018-04-08T09:09:57.179Z,36.60
2018-04-08T09:11:00.449Z,37.00
2018-04-08T09:12:03.738Z,37.20
2018-04-08T09:13:06.351Z,37.20
2018-04-08T09:14:08.861Z,37.20
2018-04-08T09:15:11.478Z,37.60
2018-04-08T09:16:14.788Z,37.10
2018-04-08T09:17:17.309Z,37.00
2018-04-08T09:18:19.853Z,37.40
2018-04-08T09:19:22.999Z,37.00
2018-04-08T09:22:15.949Z,36.20
2018-04-08T09:23:28.396Z,37.30
2018-04-08T09:24:46.651Z,37.10
2018-04-08T09:25:50.900Z,37.10
2018-04-08T09:26:53.429Z,37.30
2018-04-08T09:27:55.974Z,37.60
2018-04-08T09:28:58.487Z,38.70
2018-04-08T09:30:01.026Z,38.10
2018-04-08T09:31:03.547Z,38.30
2018-04-08T09:32:06.163Z,38.00
2018-04-08T09:33:08.734Z,38.10
2018-04-08T09:34:11.412Z,38.50
2018-04-08T09:35:13.977Z,38.50
2018-04-08T09:36:16.540Z,38.40
2018-04-08T09:37:19.023Z,38.40
2018-04-08T09:38:21.538Z,38.00
2018-04-08T09:39:24.052Z,39.20
2018-04-08T09:40:27.324Z,40.10
2018-04-08T09:41:29.860Z,40.10
2018-04-08T09:42:32.397Z,40.00
2018-04-08T09:43:35.183Z,39.00
2018-04-08T09:44:37.702Z,38.80
2018-04-08T09:45:41.003Z,38.30
2018-04-08T09:46:44.332Z,38.40
2018-04-08T09:47:46.857Z,38.40
2018-04-08T09:48:49.403Z,39.20
2018-04-08T09:49:51.896Z,39.40
2018-04-08T09:50:55.175Z,39.50
2018-04-08T09:51:57.707Z,39.30
2018-04-08T09:53:00.213Z,38.60
2018-04-08T09:54:02.782Z,37.80
2018-04-08T09:55:06.869Z,36.60
2018-04-08T09:56:09.374Z,36.60
2018-04-08T09:57:11.965Z,37.10
2018-04-08T09:58:30.995Z,37.40
2018-04-08T09:59:33.573Z,37.40
2018-04-08T10:00:39.656Z,37.90
2018-04-08T10:01:48.378Z,38.20
2018-04-08T10:02:56.915Z,37.50
2018-04-08T10:03:59.420Z,37.50
2018-04-08T10:05:02.238Z,37.20
2018-04-08T10:06:04.780Z,37.20
2018-04-08T10:07:07.346Z,37.30
2018-04-08T10:08:10.186Z,37.60
2018-04-08T10:09:13.251Z,37.40
2018-04-08T10:10:15.800Z,37.60
2018-04-08T10:11:19.105Z,39.20
2018-04-08T10:12:21.627Z,39.00
2018-04-08T10:13:24.172Z,39.00
2018-04-08T10:14:26.701Z,38.70
2018-04-08T10:15:29.981Z,37.90
2018-04-08T10:16:33.272Z,38.10
2018-04-08T10:17:35.791Z,38.10
2018-04-08T10:18:38.314Z,38.70
2018-04-08T10:19:41.625Z,39.40
2018-04-08T10:20:44.180Z,39.20
2018-04-08T10:21:48.133Z,39.00
2018-04-08T10:22:50.647Z,39.00
2018-04-08T10:23:53.920Z,39.00
2018-04-08T10:24:56.457Z,38.50
2018-04-08T10:25:58.964Z,37.90
2018-04-08T10:27:01.491Z,37.20
2018-04-08T10:28:04.014Z,36.80
2018-04-08T10:29:06.567Z,37.50
2018-04-08T10:30:09.061Z,37.80
2018-04-08T10:31:12.424Z,39.10
2018-04-08T10:32:14.973Z,39.00
2018-04-08T10:33:18.062Z,39.10
2018-04-08T10:34:21.048Z,39.50
2018-04-08T10:35:23.756Z,38.80
2018-04-08T10:36:26.601Z,38.80
2018-04-08T10:37:30.109Z,37.90
2018-04-08T10:38:33.471Z,38.70
2018-04-08T10:39:35.983Z,38.70
2018-04-08T10:40:38.589Z,37.70
2018-04-08T10:41:41.116Z,37.70
2018-04-08T10:42:45.433Z,37.40
2018-04-08T10:43:47.951Z,37.40
2018-04-08T10:44:50.459Z,37.50
2018-04-08T10:45:52.990Z,37.60
2018-04-08T10:46:55.506Z,38.10
2018-04-08T10:47:58.006Z,37.20
2018-04-08T10:49:01.414Z,36.90
2018-04-08T10:50:03.932Z,36.90
2018-04-08T10:51:06.450Z,36.70
2018-04-08T10:52:09.000Z,36.70
2018-04-08T10:53:12.157Z,37.20
2018-04-08T10:54:14.696Z,37.30
2018-04-08T10:55:18.732Z,36.70
2018-04-08T10:56:21.397Z,36.60
2018-04-08T10:57:23.922Z,36.70
2018-04-08T10:58:27.208Z,36.10
2018-04-08T10:59:30.542Z,35.90
2018-04-08T11:00:34.782Z,35.90
2018-04-08T11:01:37.332Z,36.30
2018-04-08T11:02:39.829Z,36.60
2018-04-08T11:03:42.398Z,36.70
2018-04-08T11:04:44.923Z,36.70
2018-04-08T11:05:47.440Z,36.20
2018-04-08T11:06:50.745Z,34.40
2018-04-08T11:07:54.013Z,34.60
2018-04-08T11:08:56.522Z,34.50
2018-04-08T11:09:59.049Z,34.20
2018-04-08T11:11:01.555Z,34.20
2018-04-08T11:12:04.877Z,33.70
2018-04-08T11:13:07.412Z,33.70
2018-04-08T11:14:10.752Z,33.90
2018-04-08T11:15:13.315Z,33.80
2018-04-08T11:16:15.986Z,33.00
2018-04-08T11:17:18.489Z,32.60
2018-04-08T11:18:21.769Z,32.80
2018-04-08T11:19:24.284Z,32.40
2018-04-08T11:20:27.567Z,33.20
2018-04-08T11:21:30.929Z,33.50
2018-04-08T11:22:33.442Z,33.40
2018-04-08T11:23:35.946Z,33.30
2018-04-08T11:24:38.445Z,33.60
2018-04-08T11:25:40.975Z,34.40
2018-04-08T11:26:43.528Z,34.50
2018-04-08T11:27:46.047Z,34.10
2018-04-08T11:28:48.628Z,34.50
2018-04-08T11:29:51.173Z,34.80
2018-04-08T11:30:53.666Z,35.10
2018-04-08T11:31:56.305Z,35.10
2018-04-08T11:32:58.835Z,34.70
2018-04-08T11:34:02.105Z,34.50
2018-04-08T11:35:04.600Z,34.30
2018-04-08T11:36:07.139Z,33.30
2018-04-08T11:37:09.767Z,35.00
2018-04-08T11:38:12.432Z,34.40
2018-04-08T11:39:14.940Z,34.50
2018-04-08T11:40:17.451Z,34.70
2018-04-08T11:41:20.720Z,34.00
2018-04-08T11:42:23.230Z,34.00
2018-04-08T11:43:25.761Z,34.50
2018-04-08T11:44:28.371Z,35.20
2018-04-08T11:45:30.886Z,35.50
2018-04-08T11:46:33.404Z,35.70
2018-04-08T11:47:35.951Z,35.00
2018-04-08T11:48:39.245Z,36.40
2018-04-08T11:49:42.518Z,35.50
2018-04-08T11:50:45.796Z,35.50
2018-04-08T11:51:48.420Z,35.50
2018-04-08T11:52:50.958Z,35.30
2018-04-08T11:53:53.448Z,36.10
2018-04-08T11:54:56.729Z,35.40
2018-04-08T11:55:59.998Z,35.20
2018-04-08T11:57:02.520Z,35.20
2018-04-08T11:58:05.079Z,35.40
2018-04-08T11:59:07.604Z,33.20
2018-04-08T12:00:10.300Z,34.00
2018-04-08T12:01:13.569Z,34.90
2018-04-08T12:02:16.084Z,34.80
2018-04-08T12:03:18.649Z,35.00
2018-04-08T12:04:21.196Z,34.90
2018-04-08T12:05:23.716Z,34.50
2018-04-08T12:06:26.223Z,33.70
2018-04-08T12:07:29.506Z,33.50
2018-04-08T12:08:32.021Z,33.40
2018-04-08T12:09:34.549Z,33.10
2018-04-08T12:10:37.052Z,32.70
2018-04-08T12:11:40.315Z,32.70
2018-04-08T12:12:42.830Z,32.60
2018-04-08T12:13:45.325Z,31.90
2018-04-08T12:14:47.853Z,31.90
2018-04-08T12:15:51.144Z,33.50
2018-04-08T12:16:54.428Z,33.80
2018-04-08T12:17:57.714Z,33.50
2018-04-08T12:19:00.233Z,33.50
2018-04-08T12:20:02.802Z,32.60
2018-04-08T12:21:05.323Z,32.70
2018-04-08T12:22:08.607Z,33.20
2018-04-08T12:23:11.894Z,31.20
2018-04-08T12:24:14.433Z,31.70
2018-04-08T12:25:17.941Z,31.30
2018-04-08T12:26:21.022Z,31.40
2018-04-08T12:27:23.551Z,30.60
2018-04-08T12:28:26.106Z,30.70
2018-04-08T12:29:28.628Z,30.90
2018-04-08T12:30:31.178Z,30.80
2018-04-08T12:31:33.666Z,31.10
2018-04-08T12:32:36.191Z,32.00
2018-04-08T12:33:38.693Z,31.80
2018-04-08T12:34:41.336Z,31.30
2018-04-08T12:35:43.853Z,30.30
2018-04-08T12:36:46.384Z,30.70
2018-04-08T12:37:48.897Z,30.00
2018-04-08T12:38:51.405Z,30.30
2018-04-08T12:39:54.682Z,30.80
2018-04-08T12:40:57.959Z,31.10
2018-04-08T12:42:00.489Z,31.00
2018-04-08T12:43:03.007Z,31.90
2018-04-08T12:44:05.518Z,31.60
2018-04-08T12:45:08.024Z,32.10
2018-04-08T12:46:10.551Z,32.20
2018-04-08T12:47:13.063Z,32.60
2018-04-08T12:48:15.577Z,33.10
2018-04-08T12:49:18.093Z,32.30
2018-04-08T12:50:20.625Z,31.80
2018-04-08T12:51:23.122Z,31.80
2018-04-08T12:52:25.647Z,32.20
2018-04-08T12:53:28.947Z,32.10
2018-04-08T12:54:31.471Z,32.00
2018-04-08T12:55:33.990Z,32.90
2018-04-08T12:56:37.289Z,32.50
2018-04-08T12:57:39.789Z,32.50
2018-04-08T12:58:42.303Z,32.80
2018-04-08T12:59:45.566Z,32.20
2018-04-08T13:00:48.093Z,32.10
2018-04-08T13:01:50.591Z,32.10
2018-04-08T13:02:53.125Z,32.30
2018-04-08T13:03:55.658Z,33.00
2018-04-08T13:04:58.181Z,33.10
2018-04-08T13:06:00.698Z,33.60
2018-04-08T13:07:04.020Z,33.20
2018-04-08T13:08:07.292Z,32.50
2018-04-08T13:09:10.634Z,32.40
2018-04-08T13:10:13.235Z,32.00
2018-04-08T13:11:15.775Z,32.10
2018-04-08T13:12:18.354Z,33.40
2018-04-08T13:13:20.874Z,33.50
2018-04-08T13:14:24.134Z,32.90
2018-04-08T13:15:26.633Z,32.90
2018-04-08T13:16:29.901Z,33.00
2018-04-08T13:17:32.415Z,33.00
2018-04-08T13:18:34.946Z,32.90
2018-04-08T13:19:37.458Z,32.20
2018-04-08T13:20:39.976Z,31.70
2018-04-08T13:21:42.511Z,32.20
2018-04-08T13:22:45.025Z,31.50
2018-04-08T13:23:47.634Z,31.90
2018-04-08T13:24:50.144Z,32.60
2018-04-08T13:25:52.656Z,32.50
2018-04-08T13:26:55.931Z,32.30
2018-04-08T13:27:58.464Z,32.30
2018-04-08T13:29:00.971Z,33.00
2018-04-08T13:30:04.296Z,32.20
2018-04-08T13:31:06.821Z,32.20
2018-04-08T13:32:09.343Z,32.10
2018-04-08T13:33:11.931Z,31.90
2018-04-08T13:34:14.439Z,31.80
2018-04-08T13:35:16.935Z,31.80
2018-04-08T13:36:20.215Z,32.00
2018-04-08T13:37:23.530Z,32.10
2018-04-08T13:38:26.045Z,32.00
2018-04-08T13:39:30.215Z,33.00
2018-04-08T13:40:32.717Z,33.00
2018-04-08T13:41:35.222Z,33.80
2018-04-08T13:42:38.530Z,33.70
2018-04-08T13:43:41.029Z,33.60